Time;durP1;ratioP1;P1;durP2;ratioP2;P2;SDS_P1;SDS_P2;PMS_P1;PMS_P2;Temp;Humidity;BMP_temperature;BMP_pressure;BME280_temperature;BME280_humidity;BME280_pressure;Samples;Min_cycle;Max_cycle;Signal;HPM_P1;HPM_P2
2021/11/11 00:00:30;;;;;;;23.63;13.43;;;4.70;81.60;;;;;;5054096;28;20445;-67
2021/11/11 00:02:59;;;;;;;21.60;13.20;;;4.70;81.90;;;;;;5054076;28;20477;-67
2021/11/11 00:05:27;;;;;;;18.80;12.27;;;4.70;82.20;;;;;;5053858;28;20461;-67
2021/11/11 00:07:53;;;;;;;22.70;11.37;;;4.70;82.70;;;;;;5054003;28;20449;-68
2021/11/11 00:10:22;;;;;;;16.03;10.87;;;4.70;82.30;;;;;;5053936;28;20434;-67
2021/11/11 00:12:51;;;;;;;23.63;14.23;;;4.70;82.20;;;;;;5053572;28;20472;-68
2021/11/11 00:15:18;;;;;;;29.10;14.30;;;4.70;82.40;;;;;;5054049;28;20477;-67
2021/11/11 00:17:46;;;;;;;22.30;14.87;;;4.70;82.50;;;;;;5054057;28;20491;-67
2021/11/11 00:20:15;;;;;;;21.40;14.30;;;4.70;82.50;;;;;;5053658;28;20829;-67
2021/11/11 00:22:44;;;;;;;25.43;15.50;;;4.70;82.60;;;;;;5053542;28;20453;-67
2021/11/11 00:25:12;;;;;;;23.87;15.20;;;4.70;82.70;;;;;;5053360;28;20446;-67
2021/11/11 00:27:40;;;;;;;23.43;15.70;;;4.70;82.60;;;;;;5052911;28;21024;-67
2021/11/11 00:30:09;;;;;;;21.53;15.10;;;4.70;82.10;;;;;;5053067;28;20488;-67
2021/11/11 00:32:36;;;;;;;23.03;14.17;;;4.70;82.00;;;;;;5053843;28;20452;-67
2021/11/11 00:35:03;;;;;;;20.87;14.67;;;4.70;81.90;;;;;;5057367;28;20449;-67
2021/11/11 00:37:31;;;;;;;22.43;14.00;;;4.70;82.10;;;;;;5056900;28;20453;-67
2021/11/11 00:39:58;;;;;;;16.80;11.90;;;4.60;81.90;;;;;;5057276;28;20474;-67
2021/11/11 00:42:24;;;;;;;21.27;13.43;;;4.50;82.00;;;;;;5056849;28;20477;-67
2021/11/11 00:44:51;;;;;;;14.80;11.20;;;4.50;81.60;;;;;;5056929;28;20465;-67
2021/11/11 00:47:18;;;;;;;20.90;12.10;;;4.50;81.40;;;;;;5056744;28;20967;-67
2021/11/11 00:49:45;;;;;;;19.70;13.40;;;4.40;81.40;;;;;;5056940;28;20457;-67
2021/11/11 00:52:12;;;;;;;19.23;11.63;;;4.50;81.90;;;;;;5057009;28;20452;-67
2021/11/11 00:54:42;;;;;;;18.77;12.10;;;4.40;81.60;;;;;;5056628;28;20500;-66
2021/11/11 00:57:09;;;;;;;15.20;11.27;;;4.40;81.30;;;;;;5056489;28;20965;-66
2021/11/11 00:59:36;;;;;;;19.10;11.80;;;4.40;82.00;;;;;;5056382;28;20484;-67
2021/11/11 01:02:08;;;;;;;17.87;11.30;;;4.40;81.20;;;;;;5056357;28;20937;-66
2021/11/11 01:04:34;;;;;;;16.90;11.23;;;4.30;81.10;;;;;;5056738;28;20508;-67
2021/11/11 01:07:01;;;;;;;20.97;11.13;;;4.30;81.10;;;;;;5056655;28;20456;-67
2021/11/11 01:09:29;;;;;;;19.17;11.77;;;4.20;80.80;;;;;;5056605;28;20453;-67
2021/11/11 01:11:58;;;;;;;21.43;10.70;;;4.20;81.20;;;;;;5056508;28;20449;-67
2021/11/11 01:14:25;;;;;;;18.60;11.30;;;4.10;81.40;;;;;;5056471;28;20472;-67
2021/11/11 01:16:53;;;;;;;19.20;11.30;;;4.10;81.60;;;;;;5056107;28;20445;-67
2021/11/11 01:19:20;;;;;;;17.50;11.33;;;4.10;81.70;;;;;;5056033;28;20473;-67
2021/11/11 01:21:48;;;;;;;17.43;11.97;;;4.20;82.10;;;;;;5056495;28;20449;-68
2021/11/11 01:24:14;;;;;;;18.17;12.20;;;4.20;82.30;;;;;;5056302;28;20465;-67
2021/11/11 01:26:41;;;;;;;17.40;12.67;;;4.20;82.80;;;;;;5056392;28;20445;-67
2021/11/11 01:29:10;;;;;;;21.80;13.50;;;4.20;83.20;;;;;;5056262;28;20442;-66
2021/11/11 01:31:36;;;;;;;16.80;12.13;;;4.30;83.60;;;;;;5056291;28;20445;-67
2021/11/11 01:34:04;;;;;;;16.43;12.77;;;4.30;83.20;;;;;;5056030;28;20496;-67
2021/11/11 01:36:30;;;;;;;18.87;11.70;;;4.30;83.20;;;;;;5055966;28;20445;-66
2021/11/11 01:38:57;;;;;;;22.63;12.20;;;4.20;83.00;;;;;;5056115;28;20538;-66
2021/11/11 01:41:24;;;;;;;20.23;11.90;;;4.20;82.80;;;;;;5055836;28;20449;-67
2021/11/11 01:43:51;;;;;;;14.73;11.30;;;4.20;82.70;;;;;;5055393;28;20472;-66
2021/11/11 01:46:19;;;;;;;17.17;12.30;;;4.10;82.80;;;;;;5055828;28;20465;-67
2021/11/11 01:48:46;;;;;;;21.17;12.67;;;4.20;83.40;;;;;;5055897;28;20473;-67
2021/11/11 01:51:13;;;;;;;22.30;12.47;;;4.20;83.10;;;;;;5055872;28;20456;-66
2021/11/11 01:53:40;;;;;;;17.63;13.17;;;4.20;82.60;;;;;;5055720;28;20660;-66
2021/11/11 01:56:07;;;;;;;17.30;12.63;;;4.10;82.40;;;;;;5055452;28;20975;-67
2021/11/11 01:58:34;;;;;;;20.50;14.03;;;4.10;82.30;;;;;;5055756;28;20477;-67
2021/11/11 02:01:01;;;;;;;19.30;13.10;;;4.10;82.40;;;;;;5055729;28;20457;-66
2021/11/11 02:03:29;;;;;;;16.70;12.43;;;4.10;82.20;;;;;;5055558;28;20477;-67
2021/11/11 02:05:56;;;;;;;19.23;13.53;;;4.10;82.40;;;;;;5055524;28;20448;-67
2021/11/11 02:08:26;;;;;;;19.70;13.00;;;4.10;82.70;;;;;;5055547;28;20453;-67
2021/11/11 02:10:54;;;;;;;20.70;11.90;;;4.10;82.30;;;;;;5055544;28;20438;-67
2021/11/11 02:13:21;;;;;;;17.57;12.97;;;4.00;82.00;;;;;;5054996;28;20846;-67
2021/11/11 02:15:47;;;;;;;20.80;13.43;;;4.10;82.20;;;;;;5055299;28;20449;-67
2021/11/11 02:18:14;;;;;;;20.53;12.23;;;4.10;82.10;;;;;;5055773;28;20450;-67
2021/11/11 02:20:44;;;;;;;20.40;13.20;;;4.00;81.70;;;;;;5055333;28;20454;-67
2021/11/11 02:23:15;;;;;;;19.07;11.10;;;4.00;81.90;;;;;;5055009;28;20461;-66
2021/11/11 02:25:42;;;;;;;22.47;13.47;;;4.00;81.90;;;;;;5055192;28;20463;-66
2021/11/11 02:28:13;;;;;;;14.70;12.00;;;4.00;81.80;;;;;;5055195;28;20453;-66
2021/11/11 02:30:43;;;;;;;17.83;13.43;;;4.00;82.00;;;;;;5055129;28;20430;-67
2021/11/11 02:33:11;;;;;;;21.53;12.50;;;4.00;82.20;;;;;;5054610;28;21028;-67
2021/11/11 02:35:38;;;;;;;19.67;12.43;;;4.00;81.90;;;;;;5054892;28;20456;-67
2021/11/11 02:38:06;;;;;;;18.83;13.20;;;4.00;81.90;;;;;;5054964;28;20464;-67
2021/11/11 02:40:34;;;;;;;22.73;13.10;;;4.00;82.20;;;;;;5054909;28;20470;-67
2021/11/11 02:43:01;;;;;;;22.10;13.60;;;4.00;82.40;;;;;;5054425;28;20478;-67
2021/11/11 02:45:31;;;;;;;17.97;13.00;;;4.00;82.20;;;;;;5054783;28;20450;-68
2021/11/11 02:47:59;;;;;;;16.90;12.47;;;3.90;82.00;;;;;;5054596;28;20456;-66
2021/11/11 02:50:28;;;;;;;18.83;13.37;;;3.90;82.20;;;;;;5054747;28;20444;-66
2021/11/11 02:52:55;;;;;;;18.90;14.67;;;3.90;82.60;;;;;;5054504;28;20476;-66
2021/11/11 02:55:24;;;;;;;30.03;15.53;;;3.90;82.40;;;;;;5053271;28;20454;-66
2021/11/11 02:57:52;;;;;;;18.53;13.53;;;3.90;82.40;;;;;;5054425;28;20441;-67
2021/11/11 03:00:22;;;;;;;17.23;12.90;;;3.90;82.80;;;;;;5054496;28;20489;-67
2021/11/11 03:02:53;;;;;;;17.77;14.53;;;3.90;82.50;;;;;;5054093;28;20836;-66
2021/11/11 03:05:24;;;;;;;23.20;16.07;;;3.90;82.30;;;;;;5054521;28;20422;-66
2021/11/11 03:07:51;;;;;;;20.37;14.83;;;3.80;82.40;;;;;;5054394;28;20453;-66
2021/11/11 03:10:20;;;;;;;18.60;13.70;;;3.80;82.60;;;;;;5054109;28;20441;-66
2021/11/11 03:12:49;;;;;;;22.53;13.00;;;3.80;82.60;;;;;;5053808;28;20941;-66
2021/11/11 03:15:16;;;;;;;19.53;12.77;;;3.80;82.50;;;;;;5054171;28;20458;-67
2021/11/11 03:17:44;;;;;;;21.87;13.80;;;3.70;82.30;;;;;;5054082;28;20449;-67
2021/11/11 03:20:13;;;;;;;19.60;12.10;;;3.70;82.30;;;;;;5053967;28;20485;-67
2021/11/11 03:22:42;;;;;;;23.93;13.07;;;3.70;82.20;;;;;;5054004;28;20491;-67
2021/11/11 03:25:09;;;;;;;17.53;13.63;;;3.70;82.20;;;;;;5053966;28;20449;-67
2021/11/11 03:27:36;;;;;;;17.17;12.10;;;3.70;82.40;;;;;;5053512;28;20952;-66
2021/11/11 03:30:07;;;;;;;20.07;13.03;;;3.70;82.20;;;;;;5053659;28;20937;-66
2021/11/11 03:32:34;;;;;;;22.30;12.90;;;3.70;82.10;;;;;;5053530;28;20429;-66
2021/11/11 03:35:01;;;;;;;18.70;12.90;;;3.70;82.50;;;;;;5053542;28;20444;-66
2021/11/11 03:37:27;;;;;;;19.10;12.63;;;3.70;82.30;;;;;;5053855;28;20809;-67
2021/11/11 03:39:54;;;;;;;21.50;14.23;;;3.70;82.00;;;;;;5053823;28;20476;-67
2021/11/11 03:42:21;;;;;;;20.13;14.13;;;3.70;82.20;;;;;;5053570;28;20472;-67
2021/11/11 03:44:50;;;;;;;20.73;12.60;;;3.70;82.10;;;;;;5053630;28;20477;-67
2021/11/11 03:47:19;;;;;;;15.87;11.80;;;3.60;81.80;;;;;;5053676;28;20460;-68
2021/11/11 03:49:47;;;;;;;20.77;12.70;;;3.60;81.80;;;;;;5053577;28;20802;-66
2021/11/11 03:52:14;;;;;;;14.63;10.53;;;3.50;81.70;;;;;;5053516;28;20461;-66
2021/11/11 03:54:41;;;;;;;16.67;11.93;;;3.50;81.90;;;;;;5053413;28;20476;-66
2021/11/11 03:57:08;;;;;;;17.67;12.70;;;3.50;82.30;;;;;;5053124;28;20453;-66
2021/11/11 03:59:36;;;;;;;18.10;12.97;;;3.50;82.60;;;;;;5053352;28;20481;-66
2021/11/11 04:02:04;;;;;;;19.97;12.77;;;3.50;82.70;;;;;;5053516;28;20548;-67
2021/11/11 04:04:33;;;;;;;19.53;13.17;;;3.50;82.80;;;;;;5053382;28;20535;-67
2021/11/11 04:07:00;;;;;;;16.87;12.10;;;3.50;83.60;;;;;;5052792;28;20953;-67
2021/11/11 04:09:26;;;;;;;16.30;12.17;;;3.50;82.80;;;;;;5053259;28;20453;-67
2021/11/11 04:11:53;;;;;;;16.40;11.30;;;3.50;82.60;;;;;;5052988;28;20458;-67
2021/11/11 04:14:20;;;;;;;18.37;12.20;;;3.50;82.50;;;;;;5053243;28;20872;-67
2021/11/11 04:16:47;;;;;;;23.03;12.20;;;3.50;82.20;;;;;;5052896;28;20468;-67
2021/11/11 04:19:15;;;;;;;22.07;13.27;;;3.50;82.30;;;;;;5052835;28;20992;-67
2021/11/11 04:21:43;;;;;;;21.90;12.30;;;3.50;82.60;;;;;;5053259;28;20449;-67
2021/11/11 04:24:11;;;;;;;22.50;13.37;;;3.40;82.40;;;;;;5052797;28;20450;-67
2021/11/11 04:26:45;;;;;;;19.90;12.13;;;3.40;82.60;;;;;;5052786;28;20794;-67
2021/11/11 04:29:16;;;;;;;21.33;13.20;;;3.40;83.00;;;;;;5053272;28;20524;-68
2021/11/11 04:31:47;;;;;;;22.60;12.00;;;3.40;83.00;;;;;;5053161;28;20499;-68
2021/11/11 04:34:15;;;;;;;20.47;12.80;;;3.40;83.20;;;;;;5052807;28;21056;-68
2021/11/11 04:40:04;;;;;;;23.03;14.80;;;3.40;83.40;;;;;;5045829;28;20563;-67
2021/11/11 04:42:56;;;;;;;17.93;12.03;;;3.40;83.60;;;;;;5052738;28;20461;-67
2021/11/11 05:02:08;;;;;;;20.10;13.00;;;3.30;83.80;;;;;;5052901;28;20410;-67
2021/11/11 05:04:34;;;;;;;17.63;13.07;;;3.40;84.10;;;;;;5052948;28;20523;-67
2021/11/11 05:07:01;;;;;;;18.50;13.10;;;3.40;84.10;;;;;;5052927;28;20452;-67
2021/11/11 05:09:30;;;;;;;18.83;13.13;;;3.30;84.50;;;;;;5052777;28;20457;-67
2021/11/11 05:11:56;;;;;;;22.20;13.17;;;3.30;83.60;;;;;;5052831;28;20504;-67
2021/11/11 05:14:23;;;;;;;17.60;12.10;;;3.30;83.80;;;;;;5052706;28;20465;-67
2021/11/11 05:16:50;;;;;;;23.20;15.73;;;3.40;83.80;;;;;;5052791;28;20434;-67
2021/11/11 05:19:17;;;;;;;19.30;12.73;;;3.40;84.50;;;;;;5054271;28;20487;-67
2021/11/11 05:21:43;;;;;;;18.00;11.70;;;3.40;83.50;;;;;;5055990;28;20430;-66
2021/11/11 05:24:11;;;;;;;16.60;12.70;;;3.40;83.30;;;;;;5056298;28;20472;-67
2021/11/11 05:26:40;;;;;;;20.25;12.63;;;3.40;83.20;;;;;;5056235;28;20475;-68
2021/11/11 05:29:07;;;;;;;16.90;12.40;;;3.40;83.70;;;;;;5056444;28;20246;-66
2021/11/11 05:31:33;;;;;;;22.80;14.20;;;3.40;85.80;;;;;;5056516;28;20469;-68
2021/11/11 05:34:00;;;;;;;18.20;12.60;;;3.40;84.80;;;;;;5056275;28;20816;-67
2021/11/11 05:36:27;;;;;;;19.00;12.20;;;3.40;84.20;;;;;;5056037;28;20805;-67
2021/11/11 05:38:54;;;;;;;22.10;12.50;;;3.40;83.50;;;;;;5056323;28;20436;-67
2021/11/11 05:41:21;;;;;;;24.63;12.60;;;3.40;83.20;;;;;;5056101;28;20484;-67
2021/11/11 05:43:49;;;;;;;18.07;12.67;;;3.40;82.70;;;;;;5056230;28;20471;-67
2021/11/11 05:46:16;;;;;;;18.87;13.50;;;3.40;82.60;;;;;;5056237;28;20434;-67
2021/11/11 05:48:42;;;;;;;18.67;12.23;;;3.40;82.50;;;;;;5056187;28;20454;-67
2021/11/11 05:51:09;;;;;;;22.03;13.77;;;3.30;82.40;;;;;;5056186;28;20442;-67
2021/11/11 05:53:36;;;;;;;18.77;12.70;;;3.20;83.20;;;;;;5055748;28;20482;-67
2021/11/11 05:56:04;;;;;;;23.00;11.90;;;3.20;82.50;;;;;;5055717;28;20463;-67
2021/11/11 05:58:31;;;;;;;23.40;12.23;;;3.20;82.60;;;;;;5055854;28;20803;-67
2021/11/11 06:00:59;;;;;;;23.23;12.87;;;3.20;82.80;;;;;;5055781;28;20556;-72
2021/11/11 06:03:26;;;;;;;22.63;13.50;;;3.20;83.00;;;;;;5055582;28;20481;-72
2021/11/11 06:05:52;;;;;;;14.90;11.90;;;3.20;83.30;;;;;;5055555;28;20449;-72
2021/11/11 06:08:19;;;;;;;22.67;12.23;;;3.10;83.00;;;;;;5055160;28;20445;-72
2021/11/11 06:10:46;;;;;;;16.90;11.87;;;3.10;83.00;;;;;;5055635;28;20449;-72
2021/11/11 06:13:13;;;;;;;20.80;12.00;;;3.10;83.10;;;;;;5055203;28;20523;-71
2021/11/11 06:15:39;;;;;;;17.97;12.47;;;3.10;83.50;;;;;;5055437;28;20449;-71
2021/11/11 06:18:10;;;;;;;21.37;11.80;;;3.20;83.70;;;;;;5055441;28;20922;-71
2021/11/11 06:20:43;;;;;;;15.20;11.77;;;3.10;83.30;;;;;;5055478;28;20812;-71
2021/11/11 06:23:09;;;;;;;20.40;12.03;;;3.10;83.40;;;;;;5055198;28;20512;-71
2021/11/11 06:25:36;;;;;;;18.87;12.10;;;3.10;83.50;;;;;;5055346;28;20437;-71
2021/11/11 06:28:04;;;;;;;16.47;12.63;;;3.10;83.90;;;;;;5054877;28;20967;-71
2021/11/11 06:30:30;;;;;;;22.80;12.80;;;3.10;83.90;;;;;;5055077;28;20450;-71
2021/11/11 06:32:57;;;;;;;15.67;11.33;;;3.10;83.80;;;;;;5055256;28;20480;-71
2021/11/11 06:35:26;;;;;;;17.33;12.80;;;3.10;83.60;;;;;;5055091;28;20449;-71
2021/11/11 06:37:53;;;;;;;24.77;12.07;;;3.00;83.50;;;;;;5055194;28;20445;-71
2021/11/11 06:40:20;;;;;;;23.23;13.77;;;3.10;83.90;;;;;;5054690;28;20469;-71
2021/11/11 06:42:48;;;;;;;15.40;12.33;;;3.00;84.20;;;;;;5054439;28;20458;-72
2021/11/11 06:45:16;;;;;;;19.00;13.13;;;3.10;84.90;;;;;;5054789;28;20448;-71
2021/11/11 06:47:43;;;;;;;20.07;11.50;;;3.00;84.50;;;;;;5054607;28;20449;-71
2021/11/11 06:50:11;;;;;;;15.33;11.67;;;3.00;84.70;;;;;;5054566;28;20449;-71
2021/11/11 06:52:39;;;;;;;18.10;13.00;;;3.10;84.90;;;;;;5054435;28;20472;-71
2021/11/11 06:55:08;;;;;;;15.27;12.43;;;3.10;84.90;;;;;;5054579;28;20453;-71
2021/11/11 06:57:35;;;;;;;23.20;12.20;;;3.10;84.60;;;;;;5054511;28;20444;-71
2021/11/11 07:00:04;;;;;;;21.27;13.20;;;3.10;84.40;;;;;;5053967;28;20484;-71
2021/11/11 07:02:30;;;;;;;14.37;12.60;;;3.10;84.50;;;;;;5054451;28;20460;-71
2021/11/11 07:04:57;;;;;;;14.93;12.10;;;3.10;84.50;;;;;;5054452;28;20460;-71
2021/11/11 07:07:24;;;;;;;18.53;11.67;;;3.20;84.50;;;;;;5054336;28;20445;-71
2021/11/11 07:09:52;;;;;;;16.90;13.50;;;3.20;84.40;;;;;;5054331;28;20809;-71
2021/11/11 07:12:19;;;;;;;17.30;13.70;;;3.20;84.50;;;;;;5054142;28;20453;-71
2021/11/11 07:14:45;;;;;;;17.23;12.90;;;3.20;84.70;;;;;;5054140;28;20482;-71
2021/11/11 07:17:12;;;;;;;23.53;12.93;;;3.20;84.90;;;;;;5054170;28;20446;-71
2021/11/11 07:19:39;;;;;;;17.30;13.70;;;3.20;85.00;;;;;;5054199;28;20786;-71
2021/11/11 07:22:07;;;;;;;18.60;12.87;;;3.30;85.30;;;;;;5054007;28;20811;-72
2021/11/11 07:24:34;;;;;;;17.77;12.07;;;3.30;85.50;;;;;;5054083;28;20461;-72
2021/11/11 07:27:02;;;;;;;18.43;13.27;;;3.30;85.40;;;;;;5053881;28;20458;-72
2021/11/11 07:29:29;;;;;;;20.07;13.17;;;3.30;85.60;;;;;;5054020;28;20461;-72
2021/11/11 07:31:57;;;;;;;24.90;14.53;;;3.30;85.70;;;;;;5053841;28;20444;-72
2021/11/11 07:34:25;;;;;;;17.37;13.27;;;3.40;86.60;;;;;;5053700;28;20473;-72
2021/11/11 07:36:53;;;;;;;16.30;13.03;;;3.40;86.60;;;;;;5053827;28;20460;-72
2021/11/11 07:39:20;;;;;;;15.47;12.70;;;3.40;86.40;;;;;;5053760;28;20583;-72
2021/11/11 07:41:47;;;;;;;20.27;14.10;;;3.40;86.30;;;;;;5053235;28;20490;-72
2021/11/11 07:44:15;;;;;;;18.10;13.70;;;3.40;86.40;;;;;;5053753;28;20480;-72
2021/11/11 07:46:43;;;;;;;18.30;13.63;;;3.40;86.60;;;;;;5053725;28;20548;-72
2021/11/11 07:49:11;;;;;;;22.57;17.60;;;3.40;86.80;;;;;;5053699;28;20449;-71
2021/11/11 07:51:38;;;;;;;20.93;15.97;;;3.50;87.50;;;;;;5053428;28;20905;-71
2021/11/11 07:54:05;;;;;;;23.80;14.87;;;3.50;88.30;;;;;;5053534;28;20497;-71
2021/11/11 07:56:34;;;;;;;22.80;14.40;;;3.50;88.60;;;;;;5053653;28;20457;-71
2021/11/11 07:59:01;;;;;;;19.50;14.23;;;3.60;88.90;;;;;;5053542;28;20449;-71
2021/11/11 08:01:29;;;;;;;20.73;15.63;;;3.60;89.10;;;;;;5053395;28;20491;-70
2021/11/11 08:03:56;;;;;;;22.10;15.30;;;3.70;89.40;;;;;;5054155;28;20484;-71
2021/11/11 08:06:23;;;;;;;17.30;14.50;;;3.70;89.70;;;;;;5053393;28;20442;-71
2021/11/11 08:08:49;;;;;;;27.57;16.10;;;3.70;90.00;;;;;;5053214;28;20932;-71
2021/11/11 08:11:16;;;;;;;22.73;15.63;;;3.80;90.10;;;;;;5053340;28;20450;-70
2021/11/11 08:13:43;;;;;;;19.90;15.50;;;3.80;90.10;;;;;;5053422;28;20479;-70
2021/11/11 08:16:10;;;;;;;18.57;14.23;;;3.80;90.20;;;;;;5053217;28;20502;-70
2021/11/11 08:18:38;;;;;;;23.60;15.80;;;3.80;90.20;;;;;;5053308;28;20434;-70
2021/11/11 08:21:05;;;;;;;24.23;14.80;;;3.80;90.20;;;;;;5053401;28;20493;-70
2021/11/11 08:23:32;;;;;;;23.53;14.97;;;3.90;90.40;;;;;;5053243;28;20558;-70
2021/11/11 08:26:03;;;;;;;19.90;15.00;;;3.90;90.50;;;;;;5052807;28;20871;-70
2021/11/11 08:28:30;;;;;;;27.17;14.17;;;3.90;90.60;;;;;;5054017;28;20448;-70
2021/11/11 08:30:57;;;;;;;19.90;14.73;;;4.00;90.80;;;;;;5053077;28;20453;-70
2021/11/11 08:33:24;;;;;;;19.53;13.63;;;4.00;90.80;;;;;;5052986;28;20469;-70
2021/11/11 08:35:53;;;;;;;19.40;14.67;;;4.10;90.80;;;;;;5053316;28;20453;-70
2021/11/11 08:38:20;;;;;;;21.67;14.73;;;4.10;90.80;;;;;;5053433;28;20452;-70
2021/11/11 08:40:48;;;;;;;25.03;14.40;;;4.20;90.80;;;;;;5053303;28;20470;-70
2021/11/11 08:43:15;;;;;;;17.40;13.37;;;4.20;90.70;;;;;;5052757;28;20481;-70
2021/11/11 08:45:42;;;;;;;19.10;14.90;;;4.30;90.70;;;;;;5053490;28;20453;-71
2021/11/11 08:48:08;;;;;;;23.50;15.33;;;4.30;90.70;;;;;;5052964;28;20452;-70
2021/11/11 08:50:37;;;;;;;18.20;13.23;;;4.30;90.70;;;;;;5053232;28;20456;-71
2021/11/11 08:53:06;;;;;;;17.83;12.63;;;4.40;91.20;;;;;;5052991;28;20473;-70
2021/11/11 08:55:34;;;;;;;18.20;12.57;;;4.40;91.00;;;;;;5056664;28;20940;-70
2021/11/11 08:58:03;;;;;;;17.63;13.80;;;4.50;90.90;;;;;;5057063;28;20456;-70
2021/11/11 09:00:33;;;;;;;15.60;13.47;;;4.60;90.90;;;;;;5056844;28;20481;-70
2021/11/11 09:03:02;;;;;;;27.53;15.93;;;4.60;90.80;;;;;;5056791;28;20965;-70
2021/11/11 09:05:32;;;;;;;22.60;13.80;;;4.70;90.90;;;;;;5056755;28;20445;-70
2021/11/11 09:08:00;;;;;;;27.40;15.30;;;4.80;91.00;;;;;;5056823;28;20544;-71
2021/11/11 09:10:29;;;;;;;24.40;15.20;;;4.80;91.00;;;;;;5056658;28;20445;-71
2021/11/11 09:12:57;;;;;;;16.87;14.60;;;4.80;91.10;;;;;;5056957;28;20540;-71
2021/11/11 09:15:26;;;;;;;22.17;14.63;;;4.90;91.20;;;;;;5056699;28;20816;-71
2021/11/11 09:17:55;;;;;;;27.57;15.63;;;5.00;91.30;;;;;;5056633;28;20441;-71
2021/11/11 09:20:24;;;;;;;26.33;16.27;;;5.00;91.30;;;;;;5056520;28;20445;-71
2021/11/11 09:22:52;;;;;;;32.67;16.40;;;5.10;91.40;;;;;;5056438;28;20548;-71
2021/11/11 09:25:19;;;;;;;26.10;16.57;;;5.20;91.50;;;;;;5056375;28;20453;-71
2021/11/11 09:27:47;;;;;;;27.80;17.23;;;5.30;91.50;;;;;;5056282;28;20441;-71
2021/11/11 09:30:16;;;;;;;23.53;15.43;;;5.40;91.60;;;;;;5056260;28;20445;-71
2021/11/11 09:32:43;;;;;;;22.23;16.10;;;5.40;91.50;;;;;;5055799;28;20446;-71
2021/11/11 09:35:11;;;;;;;29.60;16.30;;;5.50;91.50;;;;;;5055983;28;20945;-71
2021/11/11 09:37:39;;;;;;;26.17;18.90;;;5.60;91.60;;;;;;5056229;28;20453;-71
2021/11/11 09:40:09;;;;;;;29.33;17.97;;;5.70;91.70;;;;;;5056180;28;20453;-72
2021/11/11 09:42:36;;;;;;;29.13;19.43;;;5.80;92.10;;;;;;5055558;28;20996;-72
2021/11/11 09:45:08;;;;;;;34.60;20.40;;;5.80;91.70;;;;;;5055899;28;20536;-71
2021/11/11 09:47:35;;;;;;;27.07;20.10;;;6.00;91.80;;;;;;5056086;28;20426;-71
2021/11/11 09:50:04;;;;;;;30.43;20.27;;;6.10;91.90;;;;;;5055884;28;20460;-71
2021/11/11 09:52:31;;;;;;;29.47;21.23;;;6.20;92.00;;;;;;5055887;28;20798;-71
2021/11/11 10:00:28;;;;;;;29.97;19.10;;;6.60;92.30;;;;;;5055459;28;20402;-72
2021/11/11 10:02:56;;;;;;;28.33;19.50;;;6.70;92.30;;;;;;5055628;28;20834;-72
2021/11/11 10:05:23;;;;;;;30.50;20.90;;;6.90;92.30;;;;;;5055258;28;20469;-71
2021/11/11 10:07:51;;;;;;;29.33;19.80;;;7.00;91.70;;;;;;5055571;28;20452;-71
2021/11/11 10:10:34;;;;;;;31.67;20.40;;;7.10;91.60;;;;;;5055442;28;20450;-71
2021/11/11 10:13:15;;;;;;;30.20;20.63;;;7.20;91.70;;;;;;5055309;28;20561;-71
2021/11/11 10:16:07;;;;;;;26.67;17.50;;;7.40;91.80;;;;;;5055333;28;20433;-71
2021/11/11 10:18:39;;;;;;;33.07;20.87;;;7.60;91.70;;;;;;5055334;28;20460;-71
2021/11/11 10:21:26;;;;;;;23.10;18.17;;;7.70;91.40;;;;;;5055191;28;20848;-71
2021/11/11 10:23:55;;;;;;;30.57;19.00;;;7.90;91.20;;;;;;5055156;28;20466;-71
2021/11/11 10:26:26;;;;;;;26.87;17.40;;;8.10;91.20;;;;;;5055138;28;20449;-71
2021/11/11 10:28:53;;;;;;;25.30;20.10;;;8.30;91.10;;;;;;5055262;28;20507;-71
2021/11/11 10:31:22;;;;;;;22.20;17.73;;;8.50;90.90;;;;;;5055050;28;20445;-71
2021/11/11 10:34:06;;;;;;;22.87;17.83;;;8.70;90.60;;;;;;5055691;28;20472;-71
2021/11/11 10:36:42;;;;;;;25.87;19.07;;;9.00;90.20;;;;;;5054845;28;20868;-71
2021/11/11 10:39:11;;;;;;;24.77;19.50;;;9.30;89.20;;;;;;5054961;28;20441;-71
2021/11/11 10:41:37;;;;;;;26.03;19.37;;;9.60;88.20;;;;;;5054645;28;20478;-71
2021/11/11 10:44:18;;;;;;;29.50;20.73;;;9.80;86.00;;;;;;5055031;28;20827;-71
2021/11/11 10:46:47;;;;;;;24.50;18.77;;;10.10;82.80;;;;;;5054864;28;20429;-71
2021/11/11 10:49:19;;;;;;;21.77;17.63;;;10.50;82.10;;;;;;5054654;28;20446;-71
2021/11/11 10:51:46;;;;;;;25.13;19.07;;;10.90;78.80;;;;;;5055059;28;20426;-72
2021/11/11 10:54:13;;;;;;;28.47;19.17;;;11.30;78.30;;;;;;5054772;28;20472;-72
2021/11/11 10:56:43;;;;;;;20.80;16.70;;;11.70;77.80;;;;;;5054660;28;20456;-72
2021/11/11 10:59:14;;;;;;;22.17;19.10;;;12.20;75.80;;;;;;5054496;28;20452;-72
2021/11/11 11:01:42;;;;;;;23.73;18.10;;;12.70;73.90;;;;;;5055215;28;20473;-72
2021/11/11 11:04:27;;;;;;;26.23;16.17;;;13.20;71.90;;;;;;5054379;28;20461;-72
2021/11/11 11:07:12;;;;;;;21.60;15.63;;;13.70;69.50;;;;;;5054352;28;20458;-72
2021/11/11 11:09:40;;;;;;;18.63;16.10;;;14.20;66.80;;;;;;5053951;28;20433;-72
2021/11/11 11:12:31;;;;;;;18.57;15.03;;;14.50;64.60;;;;;;5054192;28;20445;-72
2021/11/11 11:14:58;;;;;;;21.40;15.17;;;15.00;62.70;;;;;;5054061;28;20965;-72
2021/11/11 11:17:25;;;;;;;22.47;15.17;;;15.30;60.60;;;;;;5053412;28;20445;-72
2021/11/11 11:20:21;;;;;;;19.00;15.20;;;15.50;59.20;;;;;;5054235;28;20517;-72
2021/11/11 11:22:47;;;;;;;22.10;16.17;;;15.90;58.60;;;;;;5054108;28;20473;-73
2021/11/11 11:25:15;;;;;;;23.40;17.13;;;16.10;57.80;;;;;;5054186;28;20454;-73
2021/11/11 11:27:42;;;;;;;21.27;16.70;;;16.40;57.00;;;;;;5053789;28;20934;-73
2021/11/11 11:30:15;;;;;;;25.90;17.47;;;16.70;56.40;;;;;;5054201;28;20453;-73
2021/11/11 11:32:43;;;;;;;23.10;17.27;;;16.90;55.80;;;;;;5053831;28;20441;-73
2021/11/11 11:35:13;;;;;;;21.60;16.07;;;17.20;54.70;;;;;;5053923;28;20471;-73
2021/11/11 11:37:40;;;;;;;18.70;16.27;;;17.50;54.00;;;;;;5053836;28;20544;-73
2021/11/11 11:40:09;;;;;;;20.27;15.70;;;17.70;53.00;;;;;;5053427;28;20448;-73
2021/11/11 11:42:40;;;;;;;20.83;16.77;;;18.00;52.40;;;;;;5053337;28;20485;-73
2021/11/11 11:45:10;;;;;;;21.77;16.40;;;18.20;51.70;;;;;;5053744;28;20438;-73
2021/11/11 11:47:40;;;;;;;19.10;17.07;;;18.50;51.20;;;;;;5053343;28;20996;-73
2021/11/11 11:50:10;;;;;;;19.30;17.30;;;18.70;50.40;;;;;;5054383;28;20449;-73
2021/11/11 11:52:43;;;;;;;20.60;16.10;;;18.90;49.80;;;;;;5053569;28;20440;-73
2021/11/11 11:55:14;;;;;;;19.37;17.30;;;19.10;49.20;;;;;;5054429;28;20780;-73
2021/11/11 11:57:52;;;;;;;20.03;17.03;;;19.40;48.80;;;;;;5053704;28;20445;-74
2021/11/11 12:00:35;;;;;;;24.20;17.20;;;19.60;48.30;;;;;;5053618;28;20835;-73
2021/11/11 12:03:21;;;;;;;20.60;18.50;;;19.80;47.60;;;;;;5053464;28;20491;-73
2021/11/11 12:06:11;;;;;;;22.00;18.90;;;20.10;46.80;;;;;;5053909;28;20433;-73
2021/11/11 12:08:48;;;;;;;21.30;17.67;;;20.30;46.30;;;;;;5054041;28;20448;-73
2021/11/11 12:11:38;;;;;;;22.83;18.43;;;20.50;45.40;;;;;;5053859;28;20442;-73
2021/11/11 12:14:19;;;;;;;22.40;19.90;;;20.70;45.00;;;;;;5053315;28;20886;-74
2021/11/11 12:17:03;;;;;;;25.93;20.07;;;20.90;44.30;;;;;;5053554;28;20430;-73
2021/11/11 12:28:37;;;;;;;23.63;21.10;;;21.40;42.40;;;;;;5014560;28;20787;-73
2021/11/11 12:34:35;;;;;;;26.90;22.33;;;21.60;43.00;;;;;;5059774;28;20441;-74
2021/11/11 12:39:52;;;;;;;27.70;22.70;;;21.80;42.10;;;;;;5059371;28;20402;-74
2021/11/11 12:42:33;;;;;;;27.63;23.37;;;21.90;42.00;;;;;;5058990;28;20491;-73
2021/11/11 12:45:13;;;;;;;29.60;24.23;;;22.00;41.70;;;;;;5059242;28;20429;-73
2021/11/11 12:47:45;;;;;;;28.63;23.20;;;22.10;41.50;;;;;;5058969;28;20905;-73
2021/11/11 12:50:33;;;;;;;25.67;22.97;;;22.10;41.30;;;;;;5059668;28;20483;-74
2021/11/11 12:53:22;;;;;;;26.43;23.63;;;22.10;41.40;;;;;;5059455;28;20461;-73
2021/11/11 12:56:13;;;;;;;31.20;25.60;;;22.00;41.20;;;;;;5059589;28;20450;-73
2021/11/11 12:58:44;;;;;;;28.47;25.53;;;22.00;41.40;;;;;;5059620;28;20468;-74
2021/11/11 13:01:16;;;;;;;26.97;24.07;;;21.90;41.30;;;;;;5059699;28;20444;-73
2021/11/11 13:03:51;;;;;;;30.47;25.33;;;21.90;41.10;;;;;;5059514;28;20519;-73
2021/11/11 13:06:39;;;;;;;32.30;26.20;;;21.80;40.90;;;;;;5059334;28;20782;-74
2021/11/11 13:09:11;;;;;;;30.03;26.73;;;21.70;41.30;;;;;;5059388;28;20421;-74
2021/11/11 13:11:40;;;;;;;33.77;27.00;;;21.60;41.50;;;;;;5059177;28;20429;-74
2021/11/11 13:14:16;;;;;;;29.00;25.90;;;21.50;41.70;;;;;;5059561;28;20460;-73
2021/11/11 13:17:01;;;;;;;31.70;27.07;;;21.40;41.90;;;;;;5059478;28;20524;-74
2021/11/11 13:19:32;;;;;;;34.17;27.70;;;21.30;42.10;;;;;;5058672;28;20452;-74
2021/11/11 13:22:04;;;;;;;30.17;26.23;;;21.20;42.10;;;;;;5059143;28;20484;-74
2021/11/11 13:24:44;;;;;;;30.97;27.00;;;21.10;42.30;;;;;;5059075;28;20541;-73
2021/11/11 14:01:15;;;;;;;38.00;30.03;;;17.30;50.50;;;;;;5054978;28;20789;-73